Time;durP1;ratioP1;P1;durP2;ratioP2;P2;SDS_P1;SDS_P2;PMS_P1;PMS_P2;Temp;Humidity;BMP_temperature;BMP_pressure;BME280_temperature;BME280_humidity;BME280_pressure;Samples;Min_cycle;Max_cycle;Signal;HPM_P1;HPM_P2
2023/11/28 00:02:09;;;;;;;7.70;4.70;;;;;;;0.62;59.92;97040.00;6229069;23;20251;-89
2023/11/28 00:04:35;;;;;;;8.18;4.85;;;;;;;0.77;59.95;97064.97;6205145;23;20102;-90
2023/11/28 00:07:01;;;;;;;8.18;4.43;;;;;;;1.02;60.13;97091.25;6255753;23;20020;-89
2023/11/28 00:09:27;;;;;;;8.18;4.50;;;;;;;0.80;60.35;97065.16;6205715;23;20023;-88
2023/11/28 00:11:53;;;;;;;6.47;3.47;;;;;;;0.59;60.74;97064.78;6229756;23;20023;-88
2023/11/28 00:14:19;;;;;;;7.28;4.40;;;;;;;0.68;61.52;97113.28;6229147;23;20027;-89
2023/11/28 00:16:45;;;;;;;9.43;3.65;;;;;;;0.47;61.52;97129.84;6203645;23;20020;-91
2023/11/28 00:19:11;;;;;;;5.88;3.40;;;;;;;0.41;61.89;97090.72;6204786;23;20023;-88
2023/11/28 00:21:37;;;;;;;8.02;3.88;;;;;;;0.53;61.34;97087.53;6204055;23;20024;-88
2023/11/28 00:24:03;;;;;;;7.22;3.88;;;;;;;0.93;60.89;97126.16;6228424;23;20031;-88
2023/11/28 00:26:29;;;;;;;4.95;3.45;;;;;;;0.95;60.62;97112.41;6189563;23;20012;-89
2023/11/28 00:28:59;;;;;;;6.15;3.30;;;;;;;0.75;60.02;97126.31;6172413;23;20542;-88
2023/11/28 00:31:25;;;;;;;7.65;3.45;;;;;;;0.08;61.34;97086.59;6176496;23;20020;-88
2023/11/28 00:33:52;;;;;;;5.32;3.53;;;;;;;0.42;61.95;97126.47;6175027;23;20016;-87
2023/11/28 00:36:18;;;;;;;5.72;3.20;;;;;;;0.46;61.14;97120.19;6225783;23;20087;-88
2023/11/28 00:38:44;;;;;;;6.35;3.20;;;;;;;0.63;60.17;97143.75;6199840;23;20095;-88
2023/11/28 00:41:11;;;;;;;5.63;3.22;;;;;;;0.74;59.95;97178.50;6186327;23;20017;-88
2023/11/28 00:43:37;;;;;;;;;;;;;;;0.94;60.10;97180.75;6182072;23;20024;-89
2023/11/28 00:46:04;;;;;;;5.57;3.13;;;;;;;0.91;59.14;97184.03;6207095;23;19919;-87
2023/11/28 00:48:30;;;;;;;4.80;2.72;;;;;;;0.75;59.29;97161.25;6201079;23;20099;-90
2023/11/28 00:50:56;;;;;;;6.28;3.80;;;;;;;0.97;59.70;97168.59;6150457;23;20020;-89
2023/11/28 00:53:23;;;;;;;6.00;3.78;;;;;;;0.49;60.30;97132.22;6179761;23;20052;-88
2023/11/28 00:55:49;;;;;;;8.60;3.83;;;;;;;0.45;60.90;97128.53;6200679;23;20016;-89
2023/11/28 00:58:15;;;;;;;4.80;2.90;;;;;;;0.63;60.93;97172.50;6206271;23;20070;-89
2023/11/28 01:00:41;;;;;;;5.57;2.90;;;;;;;0.32;61.83;97170.44;6173533;23;20096;-88
2023/11/28 01:03:07;;;;;;;6.75;3.58;;;;;;;0.10;63.07;97175.72;6174494;23;20024;-87
2023/11/28 01:05:34;;;;;;;5.30;2.55;;;;;;;0.38;63.21;97185.38;6208014;23;20026;-88
2023/11/28 01:08:04;;;;;;;5.38;3.38;;;;;;;0.37;63.63;97202.63;6183362;23;20084;-91
2023/11/28 01:10:31;;;;;;;5.85;3.35;;;;;;;0.20;63.68;97173.66;6186946;23;20071;-89
2023/11/28 01:12:57;;;;;;;4.55;2.90;;;;;;;-0.07;63.42;97136.00;6178829;23;20039;-90
2023/11/28 01:15:23;;;;;;;5.22;3.05;;;;;;;0.43;63.79;97217.56;6180497;23;20536;-89
2023/11/28 01:17:49;;;;;;;5.55;3.40;;;;;;;0.11;63.96;97167.38;6202131;23;20043;-89
2023/11/28 01:20:15;;;;;;;8.13;3.17;;;;;;;0.38;63.59;97181.91;6150865;23;20044;-89
2023/11/28 01:22:41;;;;;;;10.35;3.90;;;;;;;0.31;64.13;97179.63;6199080;23;20020;-91
2023/11/28 01:25:07;;;;;;;7.45;3.08;;;;;;;0.47;63.92;97212.38;6176495;23;20012;-89
2023/11/28 01:27:33;;;;;;;7.03;3.60;;;;;;;0.35;64.18;97225.50;6194389;23;20050;-89
2023/11/28 01:29:59;;;;;;;6.15;3.28;;;;;;;-0.01;63.99;97170.53;6173705;23;20016;-90
2023/11/28 01:32:25;;;;;;;7.50;3.15;;;;;;;0.18;64.53;97220.72;6173874;23;20023;-89
2023/11/28 01:34:52;;;;;;;6.70;3.25;;;;;;;0.35;63.87;97220.13;6199838;23;20055;-89
2023/11/28 01:37:19;;;;;;;;;;;;;;;0.85;63.14;97263.22;6178796;23;20016;-89
2023/11/28 01:39:45;;;;;;;5.65;3.00;;;;;;;0.33;63.21;97192.75;6228517;23;20065;-89
2023/11/28 01:42:12;;;;;;;8.40;3.22;;;;;;;0.52;61.98;97220.31;6203163;23;20016;-90
2023/11/28 01:44:38;;;;;;;6.70;3.55;;;;;;;0.81;62.10;97264.94;6229008;23;20043;-89
2023/11/28 01:47:05;;;;;;;10.50;4.10;;;;;;;0.60;62.31;97232.28;6203029;23;20016;-89
2023/11/28 01:49:34;;;;;;;7.05;3.33;;;;;;;0.57;62.35;97230.97;6201820;23;20012;-89
2023/11/28 01:52:02;;;;;;;6.07;3.17;;;;;;;0.28;62.85;97242.00;6174296;23;20017;-88
2023/11/28 01:54:28;;;;;;;6.28;3.53;;;;;;;0.69;63.00;97282.34;6200226;23;20028;-88
2023/11/28 01:56:55;;;;;;;6.38;3.70;;;;;;;0.64;62.31;97252.88;6198438;23;20023;-89
2023/11/28 01:59:21;;;;;;;6.35;3.40;;;;;;;0.45;62.68;97246.81;6198307;23;20105;-91
2023/11/28 02:01:50;;;;;;;10.43;3.97;;;;;;;0.66;62.65;97271.38;6204937;23;20087;-91
2023/11/28 02:04:16;;;;;;;7.20;3.60;;;;;;;0.14;63.78;97225.88;6225141;23;20240;-89
2023/11/28 02:06:44;;;;;;;5.65;3.30;;;;;;;0.14;65.63;97282.28;6173766;23;20016;-89
2023/11/28 02:09:10;;;;;;;7.30;3.83;;;;;;;0.31;65.94;97273.66;6198553;23;20017;-90
2023/11/28 02:11:36;;;;;;;9.18;3.88;;;;;;;0.62;65.24;97308.03;6199507;23;20016;-89
2023/11/28 02:14:03;;;;;;;5.53;3.42;;;;;;;0.30;65.99;97260.50;6173165;23;20021;-89
2023/11/28 02:16:29;;;;;;;6.88;3.60;;;;;;;0.31;65.15;97254.06;6226131;23;20064;-88
2023/11/28 02:18:55;;;;;;;6.10;3.47;;;;;;;0.69;65.26;97298.47;6200405;23;20020;-88
2023/11/28 02:21:22;;;;;;;5.87;3.43;;;;;;;0.76;65.55;97332.25;6199383;23;20044;-90
2023/11/28 02:23:48;;;;;;;6.70;3.38;;;;;;;0.48;65.67;97259.66;6225219;23;20027;-90
2023/11/28 02:26:26;;;;;;;5.33;3.10;;;;;;;0.17;66.49;97284.38;6200641;23;20040;-90
2023/11/28 02:28:56;;;;;;;7.38;3.70;;;;;;;0.49;66.99;97339.19;6200413;23;20027;-89
2023/11/28 02:31:23;;;;;;;7.30;4.07;;;;;;;0.45;66.95;97285.22;6174865;23;20123;-88
2023/11/28 02:33:49;;;;;;;10.27;4.55;;;;;;;0.58;66.35;97278.28;6224123;23;20020;-90
2023/11/28 02:36:15;;;;;;;6.93;3.80;;;;;;;0.76;65.62;97291.91;6199103;23;20016;-89
2023/11/28 02:38:41;;;;;;;5.53;3.42;;;;;;;0.67;65.85;97341.00;6226279;23;20020;-87
2023/11/28 02:41:08;;;;;;;6.55;3.88;;;;;;;0.50;66.83;97339.97;6200466;23;20021;-88
2023/11/28 02:43:34;;;;;;;6.40;3.90;;;;;;;0.55;66.83;97337.22;6198493;23;20021;-88
2023/11/28 02:46:00;;;;;;;8.02;4.28;;;;;;;0.36;66.92;97321.94;6199408;23;20355;-89
2023/11/28 02:48:26;;;;;;;8.18;3.88;;;;;;;0.55;66.39;97339.91;6176193;23;20043;-89
2023/11/28 02:50:52;;;;;;;7.65;4.05;;;;;;;0.56;65.25;97342.28;6208084;23;20042;-88
2023/11/28 02:53:19;;;;;;;6.57;3.92;;;;;;;0.77;65.17;97356.16;6182494;23;20020;-89
2023/11/28 02:55:45;;;;;;;;;;;;;;;0.94;65.22;97387.84;6232807;23;19997;-88
2023/11/28 02:58:11;;;;;;;6.88;4.10;;;;;;;0.59;65.33;97347.06;6207371;23;19927;-89
2023/11/28 03:00:37;;;;;;;6.15;3.70;;;;;;;0.56;65.35;97350.34;6234397;23;20080;-89
2023/11/28 03:03:04;;;;;;;8.15;4.47;;;;;;;0.55;65.73;97356.03;6203760;23;20484;-90
2023/11/28 03:05:31;;;;;;;7.07;3.92;;;;;;;0.54;65.14;97354.44;6200487;23;20035;-89
2023/11/28 03:07:57;;;;;;;8.40;4.13;;;;;;;0.37;65.48;97325.44;6225312;23;20017;-91
2023/11/28 03:10:23;;;;;;;8.48;4.25;;;;;;;0.68;65.12;97366.00;6200497;23;20079;-89
2023/11/28 03:12:49;;;;;;;7.30;4.03;;;;;;;0.57;64.68;97359.22;6224871;23;20079;-90
2023/11/28 03:15:15;;;;;;;7.00;4.00;;;;;;;0.99;64.80;97414.66;6175110;23;20024;-90
2023/11/28 03:17:42;;;;;;;8.45;4.18;;;;;;;0.93;64.55;97395.13;6225569;23;20026;-89
2023/11/28 03:20:09;;;;;;;8.40;4.72;;;;;;;1.10;64.58;97413.38;6225472;23;20066;-89
2023/11/28 03:22:35;;;;;;;8.85;4.05;;;;;;;0.87;64.30;97403.59;6224633;23;20024;-89
2023/11/28 03:25:10;;;;;;;6.88;4.07;;;;;;;0.59;64.29;97365.09;6178812;23;20043;-89
2023/11/28 03:27:37;;;;;;;7.40;4.38;;;;;;;0.46;63.89;97364.78;6226922;23;20044;-89
2023/11/28 03:30:04;;;;;;;8.60;4.40;;;;;;;0.58;64.13;97391.16;6199810;23;20043;-90
2023/11/28 03:32:32;;;;;;;14.98;4.68;;;;;;;0.79;64.18;97434.63;6223004;23;20092;-89
2023/11/28 03:34:58;;;;;;;8.77;4.80;;;;;;;0.05;64.25;97364.63;6226497;23;20016;-89
2023/11/28 03:37:26;;;;;;;10.07;4.95;;;;;;;0.37;64.20;97452.53;6198090;23;20071;-90
2023/11/28 03:39:52;;;;;;;10.55;4.88;;;;;;;-0.17;65.65;97378.63;6201456;23;20021;-87
2023/11/28 03:42:18;;;;;;;11.13;4.78;;;;;;;0.36;65.12;97456.28;6202791;23;20023;-90
2023/11/28 03:44:45;;;;;;;12.23;4.32;;;;;;;-0.07;64.76;97408.03;6203127;23;20016;-91
2023/11/28 03:47:11;;;;;;;7.03;4.22;;;;;;;-0.28;64.71;97380.69;6203380;23;20024;-88
2023/11/28 03:49:38;;;;;;;7.63;4.30;;;;;;;-0.18;64.67;97422.69;6232095;23;20012;-89
2023/11/28 03:52:05;;;;;;;8.40;3.53;;;;;;;0.07;65.43;97480.66;6229052;23;20024;-87
2023/11/28 03:54:31;;;;;;;9.02;4.68;;;;;;;-0.39;65.82;97416.00;6206266;23;20039;-91
2023/11/28 03:56:58;;;;;;;11.00;5.22;;;;;;;-0.26;65.78;97434.88;6232581;23;20013;-90
2023/11/28 03:59:27;;;;;;;5.47;3.47;;;;;;;0.04;65.51;97491.97;6231547;23;20020;-88
2023/11/28 04:01:54;;;;;;;;;;;;;;;-0.27;66.37;97491.53;6185147;23;20440;-91
2023/11/28 04:04:24;;;;;;;8.70;4.47;;;;;;;-0.22;66.67;97498.75;6235095;23;19954;-90
2023/11/28 04:06:52;;;;;;;8.75;4.45;;;;;;;-0.54;66.51;97462.59;6207628;23;20124;-89
2023/11/28 04:09:20;;;;;;;10.48;4.93;;;;;;;-0.79;66.45;97431.50;6209510;23;20316;-92
2023/11/28 04:11:48;;;;;;;8.00;4.43;;;;;;;-0.87;66.88;97422.19;6188144;23;20036;-92
2023/11/28 04:14:17;;;;;;;13.95;5.15;;;;;;;-0.72;66.61;97481.06;6212872;23;20028;-90
2023/11/28 04:17:07;;;;;;;8.07;4.22;;;;;;;-0.98;66.22;97428.75;6191562;23;19997;-91
2023/11/28 04:20:19;;;;;;;9.93;4.75;;;;;;;-0.59;65.89;97457.31;6208437;23;20024;-92
2023/11/28 04:25:40;;;;;;;10.75;5.20;;;;;;;-0.25;65.48;97548.44;6273615;22;20024;-91
2023/11/28 04:28:19;;;;;;;9.98;4.82;;;;;;;-0.58;65.13;97507.22;6222445;23;20015;-94
2023/11/28 04:31:08;;;;;;;9.45;4.20;;;;;;;-0.45;64.55;97519.16;6220077;23;20016;-91
2023/11/28 04:34:54;;;;;;;6.43;3.95;;;;;;;-0.98;63.54;97447.53;6197103;22;20020;-91
2023/11/28 04:40:45;;;;;;;17.80;4.57;;;;;;;-0.36;63.82;97573.81;6270127;22;20012;-92
2023/11/28 04:43:24;;;;;;;8.18;4.55;;;;;;;-0.75;64.23;97513.00;6201470;23;20023;-91
2023/11/28 04:45:56;;;;;;;10.30;4.47;;;;;;;-1.01;63.02;97489.13;6191835;23;20032;-90
2023/11/28 04:48:24;;;;;;;7.25;3.97;;;;;;;-0.59;62.70;97527.09;6239754;23;20382;-92
2023/11/28 04:51:11;;;;;;;6.43;3.95;;;;;;;-0.43;62.29;97559.91;6239500;23;20021;-91
2023/11/28 04:53:38;;;;;;;6.93;4.40;;;;;;;-0.21;62.55;97581.69;6236344;23;20059;-91
2023/11/28 04:56:07;;;;;;;8.70;4.30;;;;;;;-0.66;62.02;97542.69;6212778;23;20017;-92
2023/11/28 04:58:35;;;;;;;8.55;4.53;;;;;;;-0.52;62.71;97562.44;6188579;23;20001;-94
2023/11/28 05:01:32;;;;;;;6.82;4.20;;;;;;;-0.62;61.82;97576.75;6195603;23;20028;-91
2023/11/28 05:04:02;;;;;;;6.88;3.70;;;;;;;-0.78;62.42;97577.97;6189481;23;20096;-92
2023/11/28 05:06:35;;;;;;;7.28;3.97;;;;;;;-0.34;62.39;97610.00;6162161;23;20000;-91
2023/11/28 05:09:03;;;;;;;9.93;4.18;;;;;;;-0.81;62.11;97547.13;6210995;23;20361;-90
2023/11/28 05:11:32;;;;;;;8.82;3.97;;;;;;;-1.09;62.55;97553.25;6212592;23;20082;-91
2023/11/28 05:14:00;;;;;;;8.38;4.40;;;;;;;-0.57;62.92;97624.19;6215609;23;20039;-91
2023/11/28 05:16:30;;;;;;;8.98;4.68;;;;;;;-0.60;62.63;97605.97;6190916;23;20366;-90
2023/11/28 05:18:57;;;;;;;9.23;4.28;;;;;;;-1.07;62.76;97551.91;6189877;23;20048;-90
2023/11/28 05:21:23;;;;;;;9.18;4.28;;;;;;;-1.04;63.13;97558.59;6161524;23;20008;-91
2023/11/28 05:23:54;;;;;;;8.27;4.47;;;;;;;-0.90;62.89;97548.81;6190456;23;20032;-91
2023/11/28 05:26:22;;;;;;;9.00;4.45;;;;;;;-0.51;62.74;97633.78;6189244;23;20115;-92
2023/11/28 05:37:57;;;;;;;8.20;5.05;;;;;;;-0.35;63.21;97693.53;6301297;22;20027;-90
2023/11/28 05:40:25;;;;;;;14.85;5.80;;;;;;;-0.81;63.64;97630.28;6249747;22;20026;-90
2023/11/28 05:42:55;;;;;;;15.80;5.82;;;;;;;-0.85;63.20;97636.50;6250507;22;20011;-90
2023/11/28 05:45:27;;;;;;;11.80;5.20;;;;;;;-1.00;63.37;97632.03;6201682;22;20060;-93
2023/11/28 05:54:09;;;;;;;9.77;5.18;;;;;;;-1.02;63.54;97635.00;6262407;22;20020;-90
2023/11/28 05:57:36;;;;;;;6.75;3.67;;;;;;;-0.58;63.56;97716.50;6272700;22;20446;-89
2023/11/28 06:00:27;;;;;;;9.23;4.75;;;;;;;-0.64;64.02;97725.69;6270058;22;20020;-91
2023/11/28 06:03:16;;;;;;;13.57;4.82;;;;;;;-0.84;63.75;97697.91;6218010;23;20043;-90
2023/11/28 06:05:46;;;;;;;11.43;4.57;;;;;;;-1.17;63.46;97645.03;6186840;23;20078;-90
2023/11/28 06:08:41;;;;;;;9.50;5.38;;;;;;;-1.16;63.29;97642.03;6210053;23;20020;-90
2023/11/28 06:11:11;;;;;;;5.55;3.28;;;;;;;-1.22;62.96;97659.25;6161751;23;20079;-92
2023/11/28 06:13:37;;;;;;;9.23;4.35;;;;;;;-0.99;63.43;97706.84;6161029;23;20063;-89
2023/11/28 06:19:20;;;;;;;9.60;4.28;;;;;;;-1.00;62.86;97715.97;6248244;22;20012;-92
2023/11/28 06:24:56;;;;;;;10.38;4.88;;;;;;;-1.41;62.68;97667.13;6302383;22;20008;-90
2023/11/28 06:27:52;;;;;;;10.60;4.10;;;;;;;-1.32;62.54;97684.25;6241154;22;20015;-91
2023/11/28 06:48:40;;;;;;;6.95;3.85;;;;;;;-0.44;61.45;97842.81;6297891;22;20030;-94
2023/11/28 07:08:49;;;;;;;7.70;4.28;;;;;;;-1.40;62.34;97769.75;6293332;22;20087;-92
2023/11/28 08:29:31;;;;;;;8.65;4.13;;;;;;;-0.85;61.61;97963.75;6211115;23;20019;-91
2023/11/28 08:31:58;;;;;;;10.70;4.55;;;;;;;-0.69;61.47;97983.31;6132474;23;20011;-89
2023/11/28 08:34:26;;;;;;;11.18;5.30;;;;;;;-0.98;61.66;97946.34;6207855;23;20073;-91
2023/11/28 08:39:28;;;;;;;8.90;4.60;;;;;;;-0.45;60.98;98026.44;6135369;23;20045;-92
2023/11/28 08:42:03;;;;;;;17.80;4.30;;;;;;;-0.80;60.96;97953.78;6160545;23;20047;-92
2023/11/28 08:45:16;;;;;;;14.43;4.93;;;;;;;-0.28;60.85;98043.81;6183458;22;20025;-90
2023/11/28 08:48:26;;;;;;;7.63;4.20;;;;;;;-0.22;60.27;98044.63;6240417;23;20078;-90
2023/11/28 08:50:53;;;;;;;10.07;5.15;;;;;;;-0.61;60.41;97991.59;6216524;23;20028;-91
2023/11/28 08:53:21;;;;;;;10.60;4.55;;;;;;;-0.54;60.60;98016.25;6210039;23;20029;-91
2023/11/28 09:11:37;;;;;;;11.60;4.90;;;;;;;-0.64;59.39;98023.53;6267247;22;20031;-90
2023/11/28 09:14:59;;;;;;;12.52;5.05;;;;;;;-0.62;58.93;97999.91;6248607;22;20024;-90
2023/11/28 09:26:44;;;;;;;7.18;3.80;;;;;;;-0.75;59.12;98030.78;6304069;22;20024;-91
2023/11/28 09:29:19;;;;;;;11.52;4.65;;;;;;;-0.81;59.58;98046.09;6215177;23;20017;-89
2023/11/28 09:32:17;;;;;;;10.75;4.53;;;;;;;-0.86;59.83;98054.16;6164306;23;20032;-91
2023/11/28 09:38:13;;;;;;;8.45;4.30;;;;;;;-0.61;59.24;98057.88;6262086;22;20129;-89
2023/11/28 09:46:30;;;;;;;10.35;5.18;;;;;;;-0.85;59.31;98087.94;6271326;22;20608;-90
2023/11/28 11:01:08;;;;;;;9.15;4.13;;;;;;;-0.78;56.90;98185.06;6269697;22;20024;-89
2023/11/28 11:03:36;;;;;;;9.48;4.60;;;;;;;-0.54;56.44;98238.22;6245310;22;20028;-89
2023/11/28 11:06:06;;;;;;;7.30;3.90;;;;;;;-0.67;56.21;98230.69;6273481;22;20042;-90
2023/11/28 11:08:36;;;;;;;7.82;4.28;;;;;;;-0.72;56.69;98236.88;6271772;22;20037;-91
2023/11/28 11:11:29;;;;;;;6.15;2.88;;;;;;;-1.35;56.26;98185.22;6245514;22;20016;-90
2023/11/28 11:17:21;;;;;;;10.05;4.40;;;;;;;-0.45;56.80;98306.41;6297382;22;20015;-90
2023/11/28 11:19:53;;;;;;;6.10;3.42;;;;;;;-0.80;56.64;98293.72;6273913;22;20030;-88
2023/11/28 11:28:02;;;;;;;5.82;3.67;;;;;;;-1.25;56.71;98250.38;6270269;22;20052;-91
2023/11/28 11:30:57;;;;;;;11.25;4.88;;;;;;;-0.86;57.42;98300.97;6195177;22;20023;-91
2023/11/28 11:33:24;;;;;;;3.67;2.35;;;;;;;-1.35;56.98;98265.63;6217158;23;20052;-89
2023/11/28 11:36:14;;;;;;;7.35;3.92;;;;;;;-0.96;57.19;98333.91;6240376;22;20027;-89
2023/11/28 11:38:41;;;;;;;8.98;4.43;;;;;;;-0.96;57.41;98333.09;6219405;23;20024;-90
2023/11/28 11:41:11;;;;;;;10.50;4.82;;;;;;;-0.83;57.78;98334.47;6241485;22;20024;-91
2023/11/28 11:43:43;;;;;;;10.15;5.07;;;;;;;-0.97;57.04;98296.59;6243197;23;20020;-92
2023/11/28 11:50:55;;;;;;;9.85;4.57;;;;;;;-1.06;57.38;98308.91;6151050;23;20034;-89
2023/11/28 11:53:26;;;;;;;12.50;5.10;;;;;;;-1.23;57.28;98311.78;6151009;23;20002;-90
2023/11/28 11:56:15;;;;;;;8.80;4.38;;;;;;;-1.10;57.11;98348.03;6151189;23;20022;-90
2023/11/28 11:58:48;;;;;;;7.07;4.00;;;;;;;-0.85;57.50;98376.88;6124985;23;20013;-89
2023/11/28 12:01:30;;;;;;;9.05;4.45;;;;;;;-1.13;57.88;98319.88;6122670;23;20001;-90
2023/11/28 12:04:13;;;;;;;9.15;4.68;;;;;;;-1.59;57.44;98287.47;6121759;23;20486;-88
2023/11/28 12:09:52;;;;;;;8.75;4.30;;;;;;;-1.70;58.61;98288.47;6271543;22;20024;-89
2023/11/28 12:12:20;;;;;;;9.50;4.82;;;;;;;-1.15;58.87;98377.53;6196716;23;20032;-89
2023/11/28 12:21:07;;;;;;;10.35;5.25;;;;;;;-1.14;58.34;98363.84;6299330;22;20019;-88
2023/11/28 12:23:46;;;;;;;7.90;4.50;;;;;;;-0.96;58.12;98432.34;6248315;22;20003;-89
2023/11/28 12:26:16;;;;;;;12.20;5.20;;;;;;;-1.03;57.74;98400.38;6217705;22;20043;-88
2023/11/28 12:28:44;;;;;;;8.82;4.43;;;;;;;-1.58;57.71;98380.19;6294889;22;20000;-89
2023/11/28 12:31:16;;;;;;;6.93;4.43;;;;;;;-2.02;56.90;98336.69;6223180;22;20002;-90
2023/11/28 12:33:51;;;;;;;8.70;4.25;;;;;;;-1.60;56.87;98429.75;6297871;22;20023;-89
2023/11/28 12:36:25;;;;;;;8.90;4.00;;;;;;;-1.61;57.38;98423.59;6221873;22;20063;-89
2023/11/28 12:39:31;;;;;;;6.65;3.63;;;;;;;-1.94;57.28;98406.69;6186811;23;20017;-88
2023/11/28 12:41:58;;;;;;;8.60;4.25;;;;;;;-1.34;57.90;98482.50;6206831;23;20024;-88
2023/11/28 12:44:48;;;;;;;9.65;4.20;;;;;;;-1.82;58.27;98376.25;6164047;23;20035;-89
2023/11/28 12:47:46;;;;;;;9.48;4.78;;;;;;;-1.43;59.22;98455.34;6182944;23;20021;-87
2023/11/28 12:56:35;;;;;;;5.40;2.58;;;;;;;-2.02;61.98;98490.16;6269925;23;20008;-89
2023/11/28 12:59:52;;;;;;;12.45;5.10;;;;;;;-1.65;62.42;98540.38;6224422;22;19996;-88
2023/11/28 13:02:59;;;;;;;10.73;5.38;;;;;;;-2.07;62.90;98468.69;6270008;22;20028;-89
2023/11/28 13:15:40;;;;;;;11.43;5.72;;;;;;;-2.44;60.59;98429.19;6151274;23;20499;-88
2023/11/28 13:18:07;;;;;;;;;;;;;;;-1.51;60.38;98552.31;6151130;23;20022;-89
2023/11/28 13:20:56;;;;;;;10.48;4.80;;;;;;;-1.87;58.68;98507.44;6126294;23;19953;-89
2023/11/28 13:23:49;;;;;;;11.40;6.05;;;;;;;-1.80;58.28;98513.41;6105915;23;20001;-89
2023/11/28 13:26:42;;;;;;;12.25;5.22;;;;;;;-2.21;57.62;98462.09;6127357;23;20053;-87
2023/11/28 13:32:55;;;;;;;9.48;4.50;;;;;;;-1.90;56.43;98535.53;6302813;22;19999;-90
2023/11/28 13:36:36;;;;;;;5.18;3.25;;;;;;;-1.80;56.20;98575.03;6207720;23;20136;-91
2023/11/28 13:39:25;;;;;;;29.35;4.80;;;;;;;-1.79;56.80;98571.28;6117264;23;20025;-91
2023/11/28 13:42:52;;;;;;;10.80;5.30;;;;;;;-1.91;57.81;98584.81;6118887;23;20022;-90
2023/11/28 13:45:18;;;;;;;9.57;4.40;;;;;;;-2.13;58.17;98558.84;6071482;23;20002;-88
2023/11/28 13:47:49;;;;;;;5.93;2.95;;;;;;;-2.16;58.34;98545.94;6073347;23;20018;-88
2023/11/28 13:51:10;;;;;;;;;;;;;;;-1.92;58.85;98593.91;6099397;23;20062;-90
2023/11/28 13:54:10;;;;;;;11.10;4.25;;;;;;;-1.94;58.86;98602.19;6116317;23;19973;-89
2023/11/28 13:56:36;;;;;;;11.15;4.90;;;;;;;-2.11;58.71;98576.53;6068718;23;20112;-89
2023/11/28 13:59:03;;;;;;;7.72;4.30;;;;;;;-2.03;58.67;98619.75;6094657;23;20046;-86
2023/11/28 14:01:31;;;;;;;9.73;4.63;;;;;;;-2.51;58.95;98562.38;6118067;23;20062;-85
2023/11/28 14:04:00;;;;;;;6.75;3.63;;;;;;;-2.12;58.92;98631.94;6019324;23;20077;-89
2023/11/28 14:06:33;;;;;;;8.05;4.15;;;;;;;-2.44;59.14;98583.59;6089006;23;20026;-87
2023/11/28 14:09:03;;;;;;;6.30;3.38;;;;;;;-2.45;59.38;98606.88;6065736;23;20025;-91
2023/11/28 14:11:31;;;;;;;11.32;4.65;;;;;;;-2.47;59.27;98603.63;6074402;23;20065;-87
2023/11/28 14:14:00;;;;;;;12.18;5.45;;;;;;;-2.95;59.66;98548.84;6148299;23;20021;-89
2023/11/28 14:16:51;;;;;;;10.30;5.20;;;;;;;-2.89;59.38;98545.22;6184746;23;20016;-90
2023/11/28 14:19:42;;;;;;;9.80;4.88;;;;;;;-2.41;59.55;98650.00;6221430;22;20000;-88
2023/11/28 14:22:30;;;;;;;12.82;4.50;;;;;;;-2.76;59.29;98592.22;6238710;23;20000;-88
2023/11/28 14:25:10;;;;;;;9.35;4.90;;;;;;;-2.73;59.31;98620.34;6264111;22;20027;-89
2023/11/28 14:27:45;;;;;;;9.50;4.85;;;;;;;-2.71;58.83;98637.78;6215350;23;20032;-90
2023/11/28 14:30:16;;;;;;;11.82;5.07;;;;;;;-2.53;59.09;98668.00;6179464;23;20024;-87
2023/11/28 14:32:48;;;;;;;9.32;4.40;;;;;;;-3.09;59.13;98593.81;6185642;23;20004;-86
2023/11/28 14:35:55;;;;;;;11.52;5.35;;;;;;;-2.62;58.92;98673.78;6186207;23;20036;-88
2023/11/28 14:38:51;;;;;;;8.65;4.50;;;;;;;-2.71;58.88;98669.88;6185702;23;20047;-90
2023/11/28 14:42:27;;;;;;;13.77;5.45;;;;;;;-3.41;58.48;98545.47;6214111;23;20043;-89
2023/11/28 14:45:00;;;;;;;11.52;5.05;;;;;;;-2.84;58.37;98659.50;6211326;23;20025;-87
2023/11/28 14:47:29;;;;;;;10.80;6.15;;;;;;;-2.90;58.47;98628.38;6206488;23;20027;-86
2023/11/28 14:49:58;;;;;;;10.75;5.53;;;;;;;-2.60;58.14;98674.34;6232029;23;20052;-83
2023/11/28 14:53:03;;;;;;;;;;;;;;;-2.65;58.02;98676.09;6233334;23;20038;-86
2023/11/28 14:55:47;;;;;;;8.40;4.82;;;;;;;-3.08;58.14;98618.69;6210905;23;19971;-87
2023/11/28 14:58:19;;;;;;;10.82;5.40;;;;;;;-2.77;58.67;98692.25;6231934;23;20498;-85
2023/11/28 15:01:29;;;;;;;10.18;5.43;;;;;;;-3.62;58.82;98579.00;6231435;23;20116;-88
2023/11/28 15:04:04;;;;;;;10.90;5.60;;;;;;;-3.02;58.74;98657.03;6118514;23;20026;-88
2023/11/28 15:06:52;;;;;;;14.80;6.68;;;;;;;-3.38;58.96;98626.97;6092023;23;20002;-87
2023/11/28 15:09:35;;;;;;;10.70;5.07;;;;;;;-3.01;59.38;98698.75;6090313;23;20062;-87
2023/11/28 15:12:04;;;;;;;11.07;6.05;;;;;;;-2.84;59.57;98707.63;6090820;23;20006;-85
2023/11/28 15:18:10;;;;;;;14.35;7.45;;;;;;;-2.62;59.47;98719.25;6295965;22;20027;-86
2023/11/28 15:20:36;;;;;;;13.98;6.43;;;;;;;-2.74;59.52;98702.47;6208138;23;20028;-86
2023/11/28 15:26:42;;;;;;;12.32;6.18;;;;;;;-2.68;60.03;98738.94;6263414;22;20243;-87
2023/11/28 15:29:11;;;;;;;18.08;6.75;;;;;;;-3.21;60.28;98659.91;6214668;23;20018;-86
2023/11/28 15:32:40;;;;;;;17.13;6.35;;;;;;;-2.63;60.43;98749.72;6248259;23;20012;-87
2023/11/28 15:35:11;;;;;;;11.98;5.65;;;;;;;-3.25;60.01;98626.69;6176758;23;20005;-87
2023/11/28 15:37:40;;;;;;;11.20;6.13;;;;;;;-2.80;60.00;98711.44;6128235;23;20029;-89
2023/11/28 15:43:46;;;;;;;15.52;7.38;;;;;;;-2.27;60.13;98754.88;6277495;22;20058;-86
2023/11/28 15:46:38;;;;;;;15.60;6.72;;;;;;;-2.64;60.03;98699.97;6234389;23;20017;-85
2023/11/28 15:49:10;;;;;;;21.15;8.98;;;;;;;-2.51;59.82;98708.72;6239071;23;20019;-86
2023/11/28 15:55:49;;;;;;;28.00;11.60;;;;;;;-2.39;60.53;98776.34;6218012;22;20011;31
2023/11/28 15:58:36;;;;;;;19.48;8.27;;;;;;;-2.64;60.80;98733.94;6183975;23;20040;-87
2023/11/28 16:01:05;;;;;;;18.00;9.10;;;;;;;-2.60;60.78;98754.59;6180167;23;20048;-87
2023/11/28 16:03:39;;;;;;;17.42;9.60;;;;;;;-2.52;61.14;98766.75;6152266;23;20041;-88
2023/11/28 16:06:06;;;;;;;16.40;7.75;;;;;;;-2.70;60.64;98735.69;6155902;23;20048;-87
2023/11/28 16:08:39;;;;;;;15.90;6.35;;;;;;;-2.33;60.48;98796.81;6132055;23;20021;-88
2023/11/28 16:14:12;;;;;;;18.88;7.35;;;;;;;-2.16;60.79;98810.19;6267640;22;20390;-89
2023/11/28 16:19:26;;;;;;;11.90;5.60;;;;;;;-2.66;60.69;98755.56;6269920;22;20092;-87
2023/11/28 16:21:55;;;;;;;14.10;5.93;;;;;;;-2.35;61.00;98820.34;6216150;23;20023;-87
2023/11/28 16:24:21;;;;;;;23.25;8.38;;;;;;;-2.65;61.18;98761.72;6189183;23;20028;-87
2023/11/28 16:26:58;;;;;;;14.93;7.75;;;;;;;-2.47;61.23;98784.78;6245503;23;19997;-88
2023/11/28 16:29:51;;;;;;;17.75;6.82;;;;;;;-2.17;60.90;98833.50;6198831;23;20059;-88
2023/11/28 16:32:24;;;;;;;11.25;6.03;;;;;;;-2.80;61.27;98750.75;6268004;22;20107;-88
2023/11/28 16:35:01;;;;;;;12.38;6.68;;;;;;;-2.67;61.20;98771.84;6221738;23;20000;-91
2023/11/28 16:43:24;;;;;;;12.77;5.97;;;;;;;-2.31;61.06;98826.84;6296014;22;20047;-86
2023/11/28 16:54:26;;;;;;;11.15;6.18;;;;;;;-2.74;61.08;98790.72;6272793;22;20028;-87
2023/11/28 16:58:33;;;;;;;10.38;5.15;;;;;;;-2.52;61.87;98871.13;6229476;23;20421;-88
2023/11/28 17:01:05;;;;;;;13.23;6.15;;;;;;;-2.86;62.11;98819.38;6218475;23;20474;-89
2023/11/28 17:03:46;;;;;;;11.68;5.43;;;;;;;-2.81;62.22;98832.03;6220198;23;20030;-87
2023/11/28 17:06:17;;;;;;;11.57;6.32;;;;;;;-2.73;62.27;98874.47;6267990;22;20052;-87
2023/11/28 17:09:04;;;;;;;9.98;5.82;;;;;;;-3.52;62.52;98780.59;6202650;23;20020;-86
2023/11/28 17:11:43;;;;;;;10.27;6.13;;;;;;;-3.14;62.90;98839.69;6178929;23;20003;-87
2023/11/28 17:14:16;;;;;;;15.75;6.40;;;;;;;-2.99;62.88;98879.28;6153363;23;20017;-92
2023/11/28 17:17:28;;;;;;;13.00;6.13;;;;;;;-2.89;62.64;98894.72;6184512;23;20028;-85
2023/11/28 17:20:18;;;;;;;14.63;6.15;;;;;;;-3.19;62.42;98857.47;6177959;23;20036;-86
2023/11/28 17:23:14;;;;;;;14.40;5.35;;;;;;;-3.13;62.30;98862.69;6085088;23;20279;-87
2023/11/28 17:25:45;;;;;;;14.00;6.82;;;;;;;-3.39;62.15;98831.13;6121113;23;20018;-86
2023/11/28 17:28:15;;;;;;;;;;;;;;;-2.83;61.86;98915.19;6123276;23;20021;-88
2023/11/28 17:30:46;;;;;;;12.75;6.45;;;;;;;-3.28;62.26;98862.34;6096571;23;19916;-88
2023/11/28 17:33:19;;;;;;;12.75;6.65;;;;;;;-3.49;61.62;98846.91;6166985;23;20040;-87
2023/11/28 17:35:47;;;;;;;20.60;7.28;;;;;;;-3.54;62.07;98855.66;6176739;23;20021;-86
2023/11/28 17:38:27;;;;;;;16.35;8.10;;;;;;;-3.62;62.31;98851.44;6204238;23;20048;-86
2023/11/28 17:41:06;;;;;;;19.58;8.70;;;;;;;-3.24;62.45;98908.97;6204331;23;20021;-87